Terminal Aerodrome Forecast
Issued by NWS

Home | Current Version | Previous Version | Text Only | Print | Product List | Glossary On
Versions: 1 2 3 4 5 6 7 8 9 10 11 12
000
FTUS42 TJSJ 282334
TAFNCM
TAF
TNCM 282334Z 2900/2924 05010KT P6SM SCT019
     FM291300 08012KT P6SM SCT020
     FM292100 05013KT P6SM VCSH SCT018 BKN028=

USA.gov is the U.S. government's official web portal to all federal, state and local government web resources and services.